Time;durP1;ratioP1;P1;durP2;ratioP2;P2;SDS_P1;SDS_P2;PMS_P1;PMS_P2;Temp;Humidity;BMP_temperature;BMP_pressure;BME280_temperature;BME280_humidity;BME280_pressure;Samples;Min_cycle;Max_cycle;Signal;HPM_P1;HPM_P2
2022/03/14 00:01:12;;;;;;;1.05;0.70;;;;;;;20.36;27.10;102352.06;4181179;28;20024;-69
2022/03/14 00:03:15;;;;;;;1.02;0.57;;;;;;;20.34;26.87;102355.06;4200016;28;20074;-69
2022/03/14 00:05:17;;;;;;;1.48;0.77;;;;;;;20.36;26.74;102357.63;4182308;28;20041;-68
2022/03/14 00:07:19;;;;;;;0.90;0.80;;;;;;;20.36;26.90;102352.06;4199419;28;20025;-68
2022/03/14 00:09:20;;;;;;;0.68;0.60;;;;;;;20.36;26.95;102352.91;4200199;28;20430;-68
2022/03/14 00:11:23;;;;;;;1.73;0.63;;;;;;;20.38;26.88;102358.22;4198783;28;20036;-68
2022/03/14 00:13:30;;;;;;;0.80;0.70;;;;;;;20.36;27.36;102355.69;4198452;28;20044;-68
2022/03/14 00:15:32;;;;;;;0.55;0.40;;;;;;;20.28;27.18;102359.66;4199855;28;20106;-69
2022/03/14 00:17:34;;;;;;;1.23;0.70;;;;;;;20.37;27.24;102378.78;4199245;28;20041;-68
2022/03/14 00:19:35;;;;;;;1.65;0.80;;;;;;;20.30;26.89;102379.75;4198812;28;20037;-69
2022/03/14 00:21:41;;;;;;;0.70;0.70;;;;;;;20.38;27.09;102377.69;4198397;28;20037;-68
2022/03/14 00:23:43;;;;;;;0.80;0.70;;;;;;;20.37;27.21;102387.13;4199738;28;20058;-69
2022/03/14 00:25:45;;;;;;;0.70;0.65;;;;;;;20.27;26.94;102369.09;4200723;28;20114;-70
2022/03/14 00:27:47;;;;;;;1.05;0.77;;;;;;;20.36;27.35;102385.44;4181176;28;20095;-70
2022/03/14 00:29:48;;;;;;;1.35;0.73;;;;;;;20.27;27.22;102377.44;4199413;28;20033;-69
2022/03/14 00:31:50;;;;;;;1.25;0.60;;;;;;;20.31;26.92;102378.66;4184496;28;20454;-70
2022/03/14 00:33:52;;;;;;;1.30;0.80;;;;;;;20.36;27.32;102388.22;4204355;28;20025;-71
2022/03/14 00:35:56;;;;;;;1.00;0.80;;;;;;;20.33;26.94;102385.91;4206200;28;20044;-67
2022/03/14 00:38:01;;;;;;;1.42;0.90;;;;;;;20.35;27.13;102392.94;4215386;28;20073;-69
2022/03/14 00:40:04;;;;;;;1.55;0.63;;;;;;;20.36;27.38;102393.78;4215304;28;20085;-69
2022/03/14 00:42:06;;;;;;;1.70;0.70;;;;;;;20.29;27.45;102397.50;4214715;28;20024;-69
2022/03/14 00:44:12;;;;;;;0.88;0.70;;;;;;;20.35;27.29;102411.53;4213154;28;20036;-68
2022/03/14 00:46:17;;;;;;;1.17;0.63;;;;;;;20.36;27.22;102418.78;4214583;28;20097;-69
2022/03/14 00:48:19;;;;;;;1.75;1.20;;;;;;;20.35;27.58;102417.09;4214071;28;20082;-69
2022/03/14 00:50:21;;;;;;;0.50;0.50;;;;;;;20.34;27.17;102418.16;4214612;28;20837;-68
2022/03/14 00:52:22;;;;;;;2.40;1.15;;;;;;;20.25;27.40;102409.34;4212325;28;20039;-68
2022/03/14 00:54:24;;;;;;;1.88;0.80;;;;;;;20.25;27.32;102409.34;4214167;28;20044;-68
2022/03/14 00:56:26;;;;;;;0.80;0.80;;;;;;;20.27;27.02;102416.38;4214635;28;20536;-67
2022/03/14 00:58:32;;;;;;;1.23;0.90;;;;;;;20.33;27.13;102433.16;4213707;28;20494;-68
2022/03/14 01:00:36;;;;;;;1.30;0.95;;;;;;;20.35;27.43;102436.56;4209475;28;20483;-69
2022/03/14 01:02:37;;;;;;;0.98;0.75;;;;;;;20.31;27.17;102427.84;4213846;28;20036;-68
2022/03/14 01:04:39;;;;;;;1.48;0.88;;;;;;;20.34;27.26;102437.63;4214707;28;20093;-68
2022/03/14 01:06:40;;;;;;;1.45;0.77;;;;;;;20.34;27.42;102443.19;4214533;28;20101;-70
2022/03/14 01:08:42;;;;;;;1.08;0.80;;;;;;;20.27;27.37;102433.03;4214492;28;20040;-69
2022/03/14 01:10:44;;;;;;;0.80;0.80;;;;;;;20.34;27.43;102455.16;4213618;28;20036;-68
2022/03/14 01:12:45;;;;;;;1.55;0.93;;;;;;;20.30;27.23;102442.84;4214560;28;20024;-68
2022/03/14 01:14:47;;;;;;;0.85;0.50;;;;;;;20.32;27.22;102454.56;4214170;28;20040;-68
2022/03/14 01:16:49;;;;;;;0.85;0.85;;;;;;;20.32;27.44;102451.78;4214273;28;20384;-68
2022/03/14 01:18:50;;;;;;;1.48;1.08;;;;;;;20.28;27.22;102443.06;4214016;28;20109;-68
2022/03/14 01:20:52;;;;;;;1.25;0.90;;;;;;;20.31;27.58;102453.72;4211317;28;20404;-68
2022/03/14 01:22:56;;;;;;;1.98;0.70;;;;;;;20.29;27.58;102444.75;4184977;28;20090;-68
2022/03/14 01:24:57;;;;;;;1.60;1.07;;;;;;;20.16;27.53;102425.56;4194091;28;20044;-67
2022/03/14 01:27:02;;;;;;;1.80;1.10;;;;;;;20.30;27.09;102460.38;4197322;28;20265;-67
2022/03/14 01:29:05;;;;;;;1.60;0.80;;;;;;;20.32;27.53;102457.34;4196946;28;20086;-68
2022/03/14 01:31:07;;;;;;;3.10;0.95;;;;;;;20.30;27.25;102454.81;4192840;28;20819;-69
2022/03/14 01:33:08;;;;;;;2.00;0.90;;;;;;;20.23;27.55;102448.50;4190939;28;20033;-68
2022/03/14 01:35:09;;;;;;;1.45;0.80;;;;;;;20.27;27.23;102448.88;4196690;28;20442;-67
2022/03/14 01:37:11;;;;;;;1.98;0.77;;;;;;;20.31;27.32;102466.78;4199133;28;20086;-67
2022/03/14 01:39:15;;;;;;;3.78;0.90;;;;;;;20.31;27.64;102470.41;4202282;28;20036;-67
2022/03/14 01:41:18;;;;;;;3.35;0.77;;;;;;;20.28;27.45;102476.44;4187943;28;20036;-66
2022/03/14 01:43:21;;;;;;;3.15;0.93;;;;;;;20.29;27.24;102475.34;4199474;28;20036;-66
2022/03/14 01:45:23;;;;;;;2.63;0.85;;;;;;;20.22;27.28;102469.06;4200556;28;20086;-66
2022/03/14 01:47:24;;;;;;;3.97;1.00;;;;;;;20.25;27.71;102468.59;4198554;28;20044;-66
2022/03/14 01:49:26;;;;;;;3.65;1.08;;;;;;;20.29;27.65;102480.91;4212513;28;20572;-66
2022/03/14 01:51:29;;;;;;;2.92;1.10;;;;;;;20.27;27.37;102477.53;4217208;28;20077;-67
2022/03/14 01:53:32;;;;;;;9.50;0.98;;;;;;;20.26;27.69;102484.16;4217337;28;20446;-68
2022/03/14 01:55:34;;;;;;;5.78;1.38;;;;;;;20.28;27.45;102490.31;4209584;28;20441;-68
2022/03/14 01:57:36;;;;;;;6.95;1.30;;;;;;;20.24;27.56;102471.59;4203711;28;20443;-66
2022/03/14 01:59:38;;;;;;;9.60;1.30;;;;;;;20.23;27.64;102481.88;4200503;28;20153;-67
2022/03/14 02:01:39;;;;;;;4.88;1.40;;;;;;;20.26;27.25;102481.41;4199164;28;20093;-68
2022/03/14 02:03:41;;;;;;;10.18;1.38;;;;;;;20.26;27.36;102486.97;4200136;28;20537;-69
2022/03/14 02:05:44;;;;;;;4.78;1.23;;;;;;;20.20;27.73;102482.34;4200337;28;20118;-69
2022/03/14 02:07:45;;;;;;;6.22;1.50;;;;;;;20.26;27.40;102486.97;4200497;28;20036;-72
2022/03/14 02:09:46;;;;;;;3.80;1.30;;;;;;;20.22;27.24;102487.66;4199519;28;20037;-69
2022/03/14 02:11:55;;;;;;;18.35;2.05;;;;;;;20.25;27.34;102496.38;4199529;28;20106;-69
2022/03/14 02:13:56;;;;;;;10.07;1.45;;;;;;;20.29;27.25;102499.50;4200848;28;20098;-69
2022/03/14 02:16:01;;;;;;;5.70;1.40;;;;;;;20.29;27.39;102493.94;4200454;28;20040;-68
2022/03/14 02:18:03;;;;;;;6.85;1.70;;;;;;;20.30;27.70;102499.28;4200321;28;20044;-69
2022/03/14 02:20:05;;;;;;;6.45;1.30;;;;;;;20.31;27.38;102489.84;4182878;28;20033;-67
2022/03/14 02:22:14;;;;;;;9.00;1.35;;;;;;;20.30;27.76;102493.72;4199195;28;20032;-69
2022/03/14 02:24:15;;;;;;;6.07;1.60;;;;;;;20.34;27.37;102494.06;4200199;28;20036;-69
2022/03/14 02:26:18;;;;;;;9.68;1.77;;;;;;;20.29;27.51;102486.47;4204290;28;20102;-70
2022/03/14 02:28:21;;;;;;;4.38;1.35;;;;;;;20.29;27.74;102480.91;4201210;28;20134;-71
2022/03/14 02:30:23;;;;;;;8.98;1.55;;;;;;;20.36;27.81;102491.06;4201398;28;20434;-70
2022/03/14 02:32:25;;;;;;;6.35;1.33;;;;;;;20.39;27.52;102493.34;4201171;28;20106;-68
2022/03/14 02:34:26;;;;;;;5.32;1.45;;;;;;;20.40;27.63;102482.00;4200944;28;20092;-69
2022/03/14 02:36:31;;;;;;;6.45;1.63;;;;;;;20.39;27.81;102488.66;4199639;28;20105;-69
2022/03/14 02:38:33;;;;;;;3.33;1.45;;;;;;;20.42;27.79;102502.06;4199481;28;20040;-67
2022/03/14 02:40:39;;;;;;;3.50;1.25;;;;;;;20.40;27.62;102495.06;4201052;28;20048;-71
2022/03/14 02:42:40;;;;;;;4.18;1.60;;;;;;;20.43;27.75;102502.91;4200491;28;20513;-69
2022/03/14 02:44:42;;;;;;;4.40;1.10;;;;;;;20.45;27.89;102509.09;4201983;28;20052;-67
2022/03/14 02:46:46;;;;;;;7.00;1.17;;;;;;;20.44;28.00;102505.47;4200465;28;20189;-68
2022/03/14 02:48:48;;;;;;;4.15;1.13;;;;;;;20.46;27.90;102508.00;4200972;28;20041;-67
2022/03/14 02:50:53;;;;;;;8.52;1.13;;;;;;;20.47;27.55;102512.47;4201118;28;20106;-69
2022/03/14 02:52:55;;;;;;;2.47;1.17;;;;;;;20.48;28.01;102512.28;4209026;28;20048;-68
2022/03/14 02:54:56;;;;;;;4.53;1.30;;;;;;;20.48;27.65;102515.06;4199757;28;20488;-68
2022/03/14 02:56:58;;;;;;;4.32;1.20;;;;;;;20.49;27.65;102524.25;4199344;28;20048;-67
2022/03/14 02:58:59;;;;;;;2.03;1.10;;;;;;;20.43;28.03;102503.75;4200037;28;20106;-69
2022/03/14 03:01:00;;;;;;;3.92;1.35;;;;;;;20.49;27.77;102504.78;4199248;28;20037;-68
2022/03/14 03:03:03;;;;;;;3.90;1.05;;;;;;;20.50;27.79;102514.81;4199829;28;20045;-68
2022/03/14 03:05:05;;;;;;;2.15;0.90;;;;;;;20.51;28.09;102511.78;4199908;28;20050;-68
2022/03/14 03:07:09;;;;;;;2.97;1.15;;;;;;;20.51;28.11;102517.34;4199617;28;20036;-69
2022/03/14 03:09:12;;;;;;;3.25;1.00;;;;;;;20.52;27.75;102523.75;4199017;28;20036;-68
2022/03/14 03:11:13;;;;;;;3.45;0.93;;;;;;;20.52;27.88;102523.75;4198700;28;20464;-68
2022/03/14 03:13:15;;;;;;;2.90;1.05;;;;;;;20.45;27.77;102504.38;4196307;28;20036;-68
2022/03/14 03:15:17;;;;;;;1.80;1.10;;;;;;;20.53;27.71;102519.91;4199708;28;20098;-68
2022/03/14 03:17:20;;;;;;;2.60;1.20;;;;;;;20.50;27.96;102514.81;4198734;28;20079;-68
2022/03/14 03:19:21;;;;;;;3.47;1.10;;;;;;;20.52;27.89;102523.75;4182011;28;20029;-69
2022/03/14 03:21:26;;;;;;;8.32;1.50;;;;;;;20.54;28.10;102527.16;4199106;28;20094;-67
2022/03/14 03:23:28;;;;;;;2.97;1.08;;;;;;;20.54;28.23;102538.28;4199017;28;20500;-69
2022/03/14 03:25:30;;;;;;;2.95;1.20;;;;;;;20.55;27.73;102539.97;4205012;28;20044;-71
2022/03/14 03:27:32;;;;;;;3.55;1.20;;;;;;;20.55;28.08;102537.19;4193439;28;20053;-70
2022/03/14 03:29:33;;;;;;;2.28;0.95;;;;;;;20.55;27.98;102534.41;4209545;28;20549;-68
2022/03/14 03:31:35;;;;;;;3.13;1.20;;;;;;;20.55;27.70;102539.97;4215026;28;20048;-68
2022/03/14 03:33:38;;;;;;;5.25;1.08;;;;;;;20.46;28.08;102521.91;4206533;28;20032;-69
2022/03/14 03:35:39;;;;;;;7.13;1.13;;;;;;;20.56;28.15;102547.22;4199284;28;20067;-70
2022/03/14 03:37:44;;;;;;;7.20;1.10;;;;;;;20.55;27.93;102539.97;4212434;28;20040;-71
2022/03/14 03:39:45;;;;;;;6.40;1.13;;;;;;;20.55;28.28;102539.97;4205637;28;20040;-70
2022/03/14 03:41:52;;;;;;;7.25;1.30;;;;;;;20.55;27.96;102539.97;4198641;28;20036;-70
2022/03/14 03:43:53;;;;;;;7.55;1.45;;;;;;;20.51;28.46;102522.91;4199255;28;20063;-72
2022/03/14 03:45:58;;;;;;;8.40;1.63;;;;;;;20.54;28.53;102543.84;4203932;28;20487;-71
2022/03/14 03:47:59;;;;;;;6.65;1.50;;;;;;;20.54;28.58;102532.72;4199002;28;20074;-70
2022/03/14 03:50:01;;;;;;;3.25;1.40;;;;;;;20.48;28.22;102523.41;4199516;28;20083;-71
2022/03/14 03:52:02;;;;;;;6.18;1.50;;;;;;;20.51;28.35;102534.03;4198044;28;20041;-72
2022/03/14 03:54:04;;;;;;;2.47;1.17;;;;;;;20.50;28.18;102534.28;4199163;28;20122;-70
2022/03/14 03:56:05;;;;;;;4.75;1.27;;;;;;;20.46;28.64;102519.13;4199512;28;20464;-70
2022/03/14 03:58:07;;;;;;;3.08;1.63;;;;;;;20.51;28.33;102533.19;4198740;28;20040;-72
2022/03/14 04:00:12;;;;;;;3.97;1.10;;;;;;;20.50;28.68;102537.06;4197691;28;20040;-70
2022/03/14 04:02:19;;;;;;;1.90;0.90;;;;;;;20.49;28.51;102524.25;4197655;28;20372;-70
2022/03/14 04:04:20;;;;;;;1.42;0.90;;;;;;;20.50;28.53;102517.59;4198881;28;20041;-71
2022/03/14 04:06:28;;;;;;;2.95;0.90;;;;;;;20.48;28.49;102512.28;4201155;28;20090;-71
2022/03/14 04:08:35;;;;;;;3.53;1.13;;;;;;;20.48;28.34;102517.84;4202554;28;20040;-73
2022/03/14 04:10:38;;;;;;;2.33;1.08;;;;;;;20.48;28.35;102522.53;4183849;28;20538;-71
2022/03/14 04:12:40;;;;;;;3.65;1.20;;;;;;;20.47;28.67;102529.16;4200982;28;20098;-71
2022/03/14 04:14:42;;;;;;;2.35;1.00;;;;;;;20.47;28.38;102526.38;4200460;28;20361;-72
2022/03/14 04:16:43;;;;;;;4.03;1.10;;;;;;;20.47;28.80;102523.59;4184026;28;20086;-71
2022/03/14 04:18:45;;;;;;;4.10;1.33;;;;;;;20.46;28.61;102531.09;4200569;28;20094;-71
2022/03/14 04:20:47;;;;;;;1.80;0.93;;;;;;;20.41;28.61;102521.78;4200043;28;20107;-71
2022/03/14 04:22:48;;;;;;;1.30;1.00;;;;;;;20.47;28.46;102532.81;4198288;28;20033;-71
2022/03/14 04:24:50;;;;;;;4.95;1.55;;;;;;;20.42;28.61;102532.66;4198546;28;20037;-70
2022/03/14 04:26:52;;;;;;;1.70;0.95;;;;;;;20.45;28.44;102534.13;4198747;28;20480;-70
2022/03/14 04:28:54;;;;;;;3.67;1.20;;;;;;;20.46;28.77;102538.59;4201563;28;20553;-69
2022/03/14 04:30:55;;;;;;;3.60;1.13;;;;;;;20.46;28.53;102541.38;4198479;28;20541;-71
2022/03/14 04:32:57;;;;;;;4.57;1.10;;;;;;;20.47;28.72;102543.06;4199708;28;20085;-70
2022/03/14 04:34:58;;;;;;;2.22;1.10;;;;;;;20.46;28.80;102546.94;4199730;28;20110;-71
2022/03/14 04:37:03;;;;;;;3.55;0.98;;;;;;;20.45;28.54;102545.25;4199742;28;20098;-71
2022/03/14 04:39:05;;;;;;;1.40;1.00;;;;;;;20.41;28.63;102539.31;4198454;28;20050;-71
2022/03/14 04:41:10;;;;;;;1.90;0.90;;;;;;;20.42;28.72;102540.16;4200024;28;20048;-71
2022/03/14 04:43:11;;;;;;;2.03;0.90;;;;;;;20.45;28.50;102545.25;4201134;28;20049;-70
2022/03/14 04:45:13;;;;;;;2.55;1.10;;;;;;;20.43;28.70;102547.41;4200196;28;20474;-70
2022/03/14 04:47:17;;;;;;;2.80;0.93;;;;;;;20.45;28.60;102550.81;4199406;28;20033;-70
2022/03/14 04:49:21;;;;;;;2.85;0.98;;;;;;;20.45;28.62;102559.16;4199913;28;20086;-72
2022/03/14 04:51:23;;;;;;;4.10;1.10;;;;;;;20.44;29.01;102551.91;4198391;28;20449;-71
2022/03/14 04:53:24;;;;;;;1.77;1.02;;;;;;;20.44;28.77;102552.75;4199424;28;20040;-72
2022/03/14 04:55:26;;;;;;;2.67;0.80;;;;;;;20.37;28.72;102556.72;4199189;28;20078;-71
2022/03/14 04:57:27;;;;;;;2.10;1.10;;;;;;;20.41;28.67;102556.00;4199857;28;20090;-71
2022/03/14 04:59:34;;;;;;;1.23;0.88;;;;;;;20.43;28.65;102572.44;4199350;28;20442;-70
2022/03/14 05:01:35;;;;;;;2.72;1.20;;;;;;;20.40;28.66;102568.22;4203181;28;20036;-70
2022/03/14 05:03:37;;;;;;;1.73;1.00;;;;;;;20.43;28.77;102580.78;4198189;28;20040;-70
2022/03/14 05:05:38;;;;;;;2.22;0.80;;;;;;;20.41;28.51;102578.25;4200657;28;20085;-70
2022/03/14 05:07:40;;;;;;;3.33;1.00;;;;;;;20.42;28.81;102585.50;4214516;28;20056;-70
2022/03/14 05:09:42;;;;;;;2.03;0.80;;;;;;;20.40;28.69;102586.84;4199835;28;20082;-70
2022/03/14 05:11:44;;;;;;;2.40;1.00;;;;;;;20.42;28.90;102588.28;4197147;28;20041;-70
2022/03/14 05:13:45;;;;;;;2.15;0.90;;;;;;;20.42;28.90;102590.22;4204644;28;20035;-70
2022/03/14 05:15:47;;;;;;;1.90;1.02;;;;;;;20.25;28.70;102562.22;4213626;28;20031;-70
2022/03/14 05:17:50;;;;;;;2.10;0.82;;;;;;;20.37;29.06;102587.28;4204903;28;20098;-70
2022/03/14 05:19:52;;;;;;;0.95;0.77;;;;;;;20.34;28.59;102579.41;4213799;28;20044;-70
2022/03/14 05:21:53;;;;;;;1.85;0.95;;;;;;;20.35;28.83;102583.91;4214092;28;20101;-71
2022/03/14 05:23:57;;;;;;;1.58;1.10;;;;;;;20.34;28.92;102576.63;4209626;28;20037;-70
2022/03/14 05:25:59;;;;;;;1.10;0.68;;;;;;;20.39;29.14;102590.66;4197685;28;20429;-71
2022/03/14 05:28:00;;;;;;;3.85;0.95;;;;;;;20.38;28.64;102592.59;4198468;28;20048;-70
2022/03/14 05:30:02;;;;;;;1.23;0.75;;;;;;;20.31;29.01;102578.81;4198035;28;20040;-71
2022/03/14 05:32:05;;;;;;;1.23;0.63;;;;;;;20.39;28.76;102590.66;4197273;28;20109;-70
2022/03/14 05:34:08;;;;;;;3.75;0.93;;;;;;;20.34;29.07;102584.97;4197757;28;20537;-70
2022/03/14 05:36:13;;;;;;;3.08;1.38;;;;;;;20.34;28.59;102582.19;4197167;28;20109;-69
2022/03/14 05:38:17;;;;;;;3.28;0.80;;;;;;;20.30;28.83;102577.13;4197341;28;20109;-71
2022/03/14 05:40:20;;;;;;;1.23;0.70;;;;;;;20.34;29.11;102576.63;4197600;28;20095;-70
2022/03/14 05:42:21;;;;;;;1.38;0.90;;;;;;;20.38;29.13;102575.06;4197384;28;20126;-71
2022/03/14 05:44:22;;;;;;;2.00;1.00;;;;;;;20.35;29.07;102578.34;4198096;28;20103;-72
2022/03/14 05:46:24;;;;;;;0.95;0.68;;;;;;;20.36;28.71;102580.03;4197981;28;20033;-71
2022/03/14 05:48:31;;;;;;;1.48;1.00;;;;;;;20.37;28.71;102578.94;4197752;28;20430;-70
2022/03/14 05:50:35;;;;;;;2.67;0.98;;;;;;;20.36;28.67;102589.22;4198383;28;20075;-70
2022/03/14 05:52:36;;;;;;;2.00;0.80;;;;;;;20.33;28.78;102586.06;4197488;28;20037;-70
2022/03/14 05:54:38;;;;;;;1.08;0.85;;;;;;;20.37;28.80;102592.84;4197847;28;20032;-70
2022/03/14 05:56:40;;;;;;;1.40;1.08;;;;;;;20.37;28.70;102603.97;4197664;28;20360;-70
2022/03/14 05:58:44;;;;;;;1.05;0.95;;;;;;;20.36;29.19;102593.94;4197695;28;20445;-70
2022/03/14 06:00:48;;;;;;;2.58;1.00;;;;;;;20.33;28.64;102586.06;4198164;28;20025;-70
2022/03/14 06:02:50;;;;;;;2.45;0.82;;;;;;;20.33;28.71;102586.06;4197319;28;20033;-70
2022/03/14 06:04:53;;;;;;;1.10;0.75;;;;;;;20.33;28.44;102580.50;4209981;28;20097;-70
2022/03/14 06:06:56;;;;;;;1.35;0.85;;;;;;;20.33;28.92;102580.50;4208849;28;20036;-70
2022/03/14 06:08:57;;;;;;;1.15;0.80;;;;;;;20.33;28.96;102588.84;4196687;28;20086;-71
2022/03/14 06:10:58;;;;;;;1.35;0.90;;;;;;;20.33;28.62;102597.19;4197787;28;20075;-70
2022/03/14 06:12:59;;;;;;;1.30;1.00;;;;;;;20.33;28.75;102597.19;4211793;28;20101;-70
2022/03/14 06:15:02;;;;;;;1.30;1.00;;;;;;;20.34;29.07;102598.88;4199116;28;20553;-70
2022/03/14 06:17:07;;;;;;;1.38;0.95;;;;;;;20.33;28.94;102592.47;4197414;28;20045;-70
2022/03/14 06:19:08;;;;;;;1.27;1.00;;;;;;;20.33;28.83;102591.63;4197602;28;20032;-70
2022/03/14 06:21:10;;;;;;;1.92;0.90;;;;;;;20.33;28.78;102580.50;4197016;28;20044;-70
2022/03/14 06:23:16;;;;;;;0.77;0.77;;;;;;;20.33;29.11;102586.06;4198882;28;20033;-71
2022/03/14 06:25:18;;;;;;;0.90;0.80;;;;;;;20.34;28.66;102594.16;4200142;28;20114;-71
2022/03/14 06:27:22;;;;;;;1.88;1.00;;;;;;;20.33;28.86;102592.47;4200703;28;20033;-70
2022/03/14 06:29:24;;;;;;;0.77;0.77;;;;;;;20.33;28.68;102594.41;4199802;28;20102;-70
2022/03/14 06:31:25;;;;;;;1.13;0.82;;;;;;;20.28;28.46;102584.00;4199118;28;20044;-70
2022/03/14 06:33:26;;;;;;;1.20;0.88;;;;;;;20.23;29.00;102581.09;4200119;28;20028;-69
2022/03/14 06:35:28;;;;;;;1.40;0.90;;;;;;;20.27;28.59;102588.72;4200677;28;20094;-69
2022/03/14 06:37:35;;;;;;;1.13;1.00;;;;;;;20.27;28.85;102593.44;4200172;28;20097;-70
2022/03/14 06:39:37;;;;;;;1.08;0.80;;;;;;;20.20;28.70;102579.63;4203013;28;20037;-70
2022/03/14 06:41:42;;;;;;;1.40;0.80;;;;;;;20.28;29.05;102604.31;4206260;28;20483;-70
2022/03/14 06:43:46;;;;;;;1.25;0.80;;;;;;;20.29;28.58;102603.22;4216088;28;20082;-70
2022/03/14 06:45:48;;;;;;;0.87;0.70;;;;;;;20.26;28.57;102600.94;4205027;28;20090;-71
2022/03/14 06:47:51;;;;;;;1.67;1.00;;;;;;;20.29;28.68;102603.22;4199906;28;20056;-71
2022/03/14 06:49:53;;;;;;;1.40;1.02;;;;;;;20.28;28.81;102607.09;4211241;28;20044;-70
2022/03/14 06:52:03;;;;;;;1.55;0.80;;;;;;;20.25;28.77;102604.81;4215785;28;20085;-70
2022/03/14 06:54:05;;;;;;;1.33;0.73;;;;;;;20.27;28.59;102599.84;4202848;28;20094;-69
2022/03/14 06:56:10;;;;;;;1.17;0.90;;;;;;;20.23;28.86;102600.53;4199424;28;20040;-69
2022/03/14 06:58:14;;;;;;;2.13;1.02;;;;;;;20.20;28.80;102596.28;4204696;28;20101;-70
2022/03/14 07:00:16;;;;;;;1.10;0.82;;;;;;;20.27;28.40;102599.00;4216131;28;20035;-70
2022/03/14 07:02:17;;;;;;;1.58;1.05;;;;;;;20.26;28.33;102603.72;4210282;28;20036;-71
2022/03/14 07:04:18;;;;;;;1.20;0.80;;;;;;;20.26;28.37;102606.50;4199302;28;20480;-71
2022/03/14 07:06:20;;;;;;;1.10;0.90;;;;;;;20.27;28.33;102604.56;4199588;28;20486;-71
2022/03/14 07:08:23;;;;;;;1.85;0.82;;;;;;;20.26;28.75;102603.72;4208327;28;20090;-69
2022/03/14 07:10:26;;;;;;;0.90;0.60;;;;;;;20.26;28.73;102609.28;4199355;28;20045;-71
2022/03/14 07:12:30;;;;;;;1.90;0.88;;;;;;;20.24;28.56;102610.56;4199584;28;20464;-69
2022/03/14 07:14:34;;;;;;;1.38;1.00;;;;;;;20.26;28.65;102609.28;4210911;28;20040;-71
2022/03/14 07:16:36;;;;;;;1.45;0.90;;;;;;;20.27;28.43;102599.00;4216356;28;20040;-70
2022/03/14 07:18:37;;;;;;;2.80;1.00;;;;;;;20.26;28.46;102606.50;4200709;28;20032;-70
2022/03/14 07:20:39;;;;;;;1.52;0.90;;;;;;;20.25;28.82;102595.59;4183437;28;20473;-70
2022/03/14 07:22:55;;;;;;;1.75;0.80;;;;;;;20.24;28.92;102597.53;4207050;28;20044;-70
2022/03/14 07:24:57;;;;;;;1.10;0.88;;;;;;;20.27;28.63;102604.56;4209699;28;20049;-70
2022/03/14 07:26:58;;;;;;;1.38;0.88;;;;;;;20.26;28.67;102603.72;4214225;28;20088;-70
2022/03/14 07:29:01;;;;;;;1.50;1.00;;;;;;;20.26;28.82;102609.28;4200151;28;20045;-70
2022/03/14 07:31:02;;;;;;;1.60;0.80;;;;;;;20.26;28.74;102598.16;4205340;28;20047;-70
2022/03/14 07:33:04;;;;;;;1.20;0.82;;;;;;;20.27;28.76;102587.88;4214906;28;20036;-70
2022/03/14 07:35:09;;;;;;;1.20;0.80;;;;;;;20.26;28.67;102587.03;4214210;28;20097;-70
2022/03/14 07:37:11;;;;;;;1.38;0.90;;;;;;;20.28;28.89;102579.28;4199916;28;20037;-70
2022/03/14 07:39:12;;;;;;;1.05;0.90;;;;;;;20.26;28.95;102578.69;4209290;28;20089;-70
2022/03/14 07:41:14;;;;;;;1.27;0.68;;;;;;;20.25;28.88;102590.03;4214105;28;20028;-69
2022/03/14 07:43:16;;;;;;;1.27;0.80;;;;;;;20.26;28.91;102587.03;4200111;28;20086;-69
2022/03/14 07:45:21;;;;;;;1.65;0.90;;;;;;;20.26;28.39;102591.75;4200043;28;20066;-70
2022/03/14 07:47:23;;;;;;;1.55;1.10;;;;;;;20.27;28.93;102594.28;4182360;28;20037;-69
2022/03/14 07:49:27;;;;;;;1.10;0.70;;;;;;;20.26;28.46;102586.19;4181595;28;20091;-69
2022/03/14 07:51:28;;;;;;;1.10;0.73;;;;;;;20.26;28.58;102592.59;4198513;28;20036;-70
2022/03/14 07:53:35;;;;;;;0.85;0.70;;;;;;;20.26;28.90;102589.81;4198185;28;20418;-69
2022/03/14 07:55:37;;;;;;;1.08;0.88;;;;;;;20.27;28.87;102591.50;4198787;28;20094;-70
2022/03/14 07:57:40;;;;;;;1.63;0.90;;;;;;;20.27;28.65;102591.50;4198218;28;20098;-70
2022/03/14 07:59:43;;;;;;;1.90;1.00;;;;;;;20.29;28.94;102592.09;4199011;28;20028;-70
2022/03/14 08:01:45;;;;;;;1.50;0.88;;;;;;;20.29;28.60;102602.38;4198512;28;20439;-70
2022/03/14 08:03:49;;;;;;;2.50;1.00;;;;;;;20.27;28.59;102599.00;4199009;28;20059;-69
2022/03/14 08:05:55;;;;;;;2.57;0.90;;;;;;;20.23;28.51;102593.06;4198898;28;20097;-70
2022/03/14 08:07:58;;;;;;;1.15;0.80;;;;;;;20.22;28.72;102591.38;4198916;28;20048;-70
2022/03/14 08:10:06;;;;;;;1.73;0.80;;;;;;;20.23;28.63;102595.84;4180702;28;20106;-70
2022/03/14 08:12:11;;;;;;;1.42;1.08;;;;;;;20.27;28.59;102605.41;4198601;28;20044;-70
2022/03/14 08:14:12;;;;;;;;;;;;;;;20.25;28.77;102607.59;4199266;28;20106;-70
2022/03/14 08:16:14;;;;;;;1.23;1.05;;;;;;;20.34;28.90;102610.00;4198203;28;19973;-70
2022/03/14 08:18:15;;;;;;;2.13;1.00;;;;;;;20.27;28.83;102591.50;4196279;28;20040;-70
2022/03/14 08:20:20;;;;;;;1.17;0.95;;;;;;;20.29;28.94;102608.78;4198713;28;20044;-70
2022/03/14 08:22:24;;;;;;;1.13;0.80;;;;;;;20.33;28.80;102608.31;4198646;28;20438;-70
2022/03/14 08:24:28;;;;;;;1.10;1.00;;;;;;;20.23;28.72;102604.16;4197961;28;20036;-71
2022/03/14 08:26:32;;;;;;;2.08;0.90;;;;;;;20.27;28.70;102605.41;4198556;28;20541;-70
2022/03/14 08:28:38;;;;;;;1.35;0.93;;;;;;;20.28;28.61;102617.38;4198661;28;20110;-70
2022/03/14 08:30:39;;;;;;;1.63;1.05;;;;;;;20.28;28.64;102615.44;4198274;28;20451;-71
2022/03/14 08:32:47;;;;;;;1.35;0.95;;;;;;;20.27;28.98;102622.06;4198057;28;20113;-70
2022/03/14 08:34:49;;;;;;;0.80;0.70;;;;;;;20.27;28.98;102621.22;4198386;28;20097;-70
2022/03/14 08:36:50;;;;;;;1.58;0.90;;;;;;;20.24;28.75;102622.53;4201246;28;20036;-70
2022/03/14 08:38:54;;;;;;;2.10;0.75;;;;;;;20.27;28.54;102627.63;4199768;28;20422;-70
2022/03/14 08:40:58;;;;;;;1.75;0.90;;;;;;;20.24;28.67;102621.69;4198709;28;20041;-70
2022/03/14 08:42:59;;;;;;;2.65;0.93;;;;;;;20.26;29.09;102625.94;4203824;28;20552;-71
2022/03/14 08:45:05;;;;;;;1.42;0.70;;;;;;;20.24;29.07;102633.66;4206204;28;20036;-69
2022/03/14 08:47:07;;;;;;;0.95;0.85;;;;;;;20.27;28.64;102627.63;4193476;28;20163;-70
2022/03/14 08:49:09;;;;;;;1.30;0.80;;;;;;;20.23;28.97;102614.44;4209875;28;20495;-70
2022/03/14 08:51:10;;;;;;;3.42;0.90;;;;;;;20.25;28.97;102629.81;4183377;28;20538;-70
2022/03/14 08:53:12;;;;;;;2.95;1.15;;;;;;;20.26;28.67;102625.94;4214365;28;20048;-70
2022/03/14 08:55:15;;;;;;;1.10;0.90;;;;;;;20.23;28.63;102615.28;4215031;28;20036;-70
2022/03/14 08:57:16;;;;;;;1.27;0.80;;;;;;;20.26;28.88;102619.53;4171589;28;20038;-70
2022/03/14 08:59:18;;;;;;;1.42;0.88;;;;;;;20.24;28.94;102624.47;4197783;28;20036;-70
2022/03/14 09:01:21;;;;;;;1.08;0.80;;;;;;;20.25;28.71;102624.25;4198721;28;20044;-70
2022/03/14 09:03:23;;;;;;;1.33;0.95;;;;;;;20.25;28.67;102620.59;4214737;28;20048;-70
2022/03/14 09:05:24;;;;;;;2.92;0.80;;;;;;;20.19;28.77;102619.63;4214331;28;20080;-70
2022/03/14 09:07:27;;;;;;;1.55;1.10;;;;;;;20.25;28.96;102627.03;4204026;28;20487;-70
2022/03/14 09:09:29;;;;;;;0.95;0.80;;;;;;;20.22;28.57;102624.72;4198225;28;20028;-70
2022/03/14 09:11:30;;;;;;;1.38;0.90;;;;;;;20.24;28.59;102639.22;4208631;28;20487;-70
2022/03/14 09:13:31;;;;;;;4.03;0.95;;;;;;;20.23;28.53;102625.56;4214886;28;20093;-70
2022/03/14 09:15:33;;;;;;;1.92;0.85;;;;;;;20.21;28.74;102642.50;4209943;28;20438;-70
2022/03/14 09:17:44;;;;;;;0.73;0.70;;;;;;;20.20;28.70;102657.44;4197683;28;20094;-70
2022/03/14 09:19:45;;;;;;;3.67;0.77;;;;;;;20.21;28.95;102656.38;4197633;28;20040;-70
2022/03/14 09:21:47;;;;;;;1.60;1.00;;;;;;;20.23;28.98;102645.03;4210400;28;20101;-71
2022/03/14 09:23:51;;;;;;;1.40;1.00;;;;;;;20.22;28.69;102627.50;4214095;28;20094;-70
2022/03/14 09:25:52;;;;;;;1.48;0.77;;;;;;;20.23;28.83;102631.97;4208520;28;20073;-70
2022/03/14 09:27:57;;;;;;;1.80;0.75;;;;;;;20.18;28.91;102640.16;4196987;28;20098;-70
2022/03/14 09:29:58;;;;;;;1.45;1.00;;;;;;;20.21;29.05;102653.59;4197300;28;20086;-70